sensor_id;sensor_type;location;lat;lon;timestamp;P1;durP1;ratioP1;P2;durP2;ratioP2
10882;SDS011;5494;51.796;10.952;2023-05-07T00:01:00;28.57;;;19.07;;
10882;SDS011;5494;51.796;10.952;2023-05-07T00:03:28;30.03;;;20.23;;
10882;SDS011;5494;51.796;10.952;2023-05-07T00:05:58;26.83;;;18.83;;
10882;SDS011;5494;51.796;10.952;2023-05-07T00:08:26;27.17;;;19.90;;
10882;SDS011;5494;51.796;10.952;2023-05-07T00:10:54;25.17;;;18.20;;
10882;SDS011;5494;51.796;10.952;2023-05-07T00:13:22;28.23;;;19.27;;
10882;SDS011;5494;51.796;10.952;2023-05-07T00:15:50;25.93;;;18.80;;
10882;SDS011;5494;51.796;10.952;2023-05-07T00:18:18;24.17;;;17.27;;
10882;SDS011;5494;51.796;10.952;2023-05-07T00:20:48;22.60;;;15.87;;
10882;SDS011;5494;51.796;10.952;2023-05-07T00:23:18;22.60;;;15.73;;
10882;SDS011;5494;51.796;10.952;2023-05-07T00:25:46;17.77;;;13.47;;
10882;SDS011;5494;51.796;10.952;2023-05-07T00:28:14;20.63;;;13.07;;
10882;SDS011;5494;51.796;10.952;2023-05-07T00:30:42;19.40;;;12.10;;
10882;SDS011;5494;51.796;10.952;2023-05-07T00:33:09;16.90;;;12.03;;
10882;SDS011;5494;51.796;10.952;2023-05-07T00:35:37;15.93;;;12.63;;
10882;SDS011;5494;51.796;10.952;2023-05-07T00:38:06;15.23;;;12.00;;
10882;SDS011;5494;51.796;10.952;2023-05-07T00:40:35;17.90;;;12.03;;
10882;SDS011;5494;51.796;10.952;2023-05-07T00:43:03;17.13;;;12.33;;
10882;SDS011;5494;51.796;10.952;2023-05-07T00:45:33;17.43;;;12.33;;
10882;SDS011;5494;51.796;10.952;2023-05-07T00:48:01;17.80;;;12.07;;
10882;SDS011;5494;51.796;10.952;2023-05-07T00:50:31;16.03;;;12.63;;
10882;SDS011;5494;51.796;10.952;2023-05-07T00:53:00;17.20;;;12.90;;
10882;SDS011;5494;51.796;10.952;2023-05-07T00:55:28;21.10;;;13.13;;
10882;SDS011;5494;51.796;10.952;2023-05-07T00:57:58;17.43;;;12.47;;
10882;SDS011;5494;51.796;10.952;2023-05-07T01:00:26;18.83;;;13.30;;
10882;SDS011;5494;51.796;10.952;2023-05-07T01:02:55;18.40;;;12.57;;
10882;SDS011;5494;51.796;10.952;2023-05-07T01:05:24;18.20;;;12.43;;
10882;SDS011;5494;51.796;10.952;2023-05-07T01:07:55;17.97;;;12.93;;
10882;SDS011;5494;51.796;10.952;2023-05-07T01:10:25;16.50;;;12.37;;
10882;SDS011;5494;51.796;10.952;2023-05-07T01:12:53;18.93;;;13.30;;
10882;SDS011;5494;51.796;10.952;2023-05-07T01:15:23;18.37;;;12.57;;
10882;SDS011;5494;51.796;10.952;2023-05-07T01:17:51;20.90;;;12.83;;
10882;SDS011;5494;51.796;10.952;2023-05-07T01:20:27;20.10;;;13.47;;
10882;SDS011;5494;51.796;10.952;2023-05-07T01:22:57;18.43;;;12.80;;
10882;SDS011;5494;51.796;10.952;2023-05-07T01:25:27;21.77;;;14.77;;
10882;SDS011;5494;51.796;10.952;2023-05-07T01:27:58;20.70;;;14.40;;
10882;SDS011;5494;51.796;10.952;2023-05-07T01:30:31;19.53;;;14.93;;
10882;SDS011;5494;51.796;10.952;2023-05-07T01:33:06;21.70;;;15.90;;
10882;SDS011;5494;51.796;10.952;2023-05-07T01:35:41;21.57;;;15.50;;
10882;SDS011;5494;51.796;10.952;2023-05-07T01:38:15;21.37;;;15.23;;
10882;SDS011;5494;51.796;10.952;2023-05-07T01:40:45;20.43;;;14.93;;
10882;SDS011;5494;51.796;10.952;2023-05-07T01:43:13;22.57;;;16.37;;
10882;SDS011;5494;51.796;10.952;2023-05-07T01:45:41;23.43;;;16.17;;
10882;SDS011;5494;51.796;10.952;2023-05-07T01:48:11;24.50;;;16.30;;
10882;SDS011;5494;51.796;10.952;2023-05-07T01:50:41;23.40;;;15.87;;
10882;SDS011;5494;51.796;10.952;2023-05-07T01:53:11;25.13;;;16.10;;
10882;SDS011;5494;51.796;10.952;2023-05-07T01:55:40;27.97;;;16.03;;
10882;SDS011;5494;51.796;10.952;2023-05-07T01:58:08;25.17;;;16.77;;
10882;SDS011;5494;51.796;10.952;2023-05-07T02:00:37;24.33;;;15.43;;
10882;SDS011;5494;51.796;10.952;2023-05-07T02:03:07;22.83;;;15.00;;
10882;SDS011;5494;51.796;10.952;2023-05-07T02:05:45;22.20;;;14.60;;
10882;SDS011;5494;51.796;10.952;2023-05-07T02:08:25;23.37;;;15.03;;
10882;SDS011;5494;51.796;10.952;2023-05-07T02:10:55;22.07;;;15.10;;
10882;SDS011;5494;51.796;10.952;2023-05-07T02:13:25;24.40;;;14.40;;
10882;SDS011;5494;51.796;10.952;2023-05-07T02:15:54;21.13;;;14.63;;
10882;SDS011;5494;51.796;10.952;2023-05-07T02:18:23;18.47;;;13.50;;
10882;SDS011;5494;51.796;10.952;2023-05-07T02:20:51;21.27;;;13.93;;
10882;SDS011;5494;51.796;10.952;2023-05-07T02:23:19;21.90;;;13.97;;
10882;SDS011;5494;51.796;10.952;2023-05-07T02:25:47;19.90;;;13.47;;
10882;SDS011;5494;51.796;10.952;2023-05-07T02:28:18;19.27;;;12.90;;
10882;SDS011;5494;51.796;10.952;2023-05-07T02:30:53;23.37;;;13.93;;
10882;SDS011;5494;51.796;10.952;2023-05-07T02:33:21;18.97;;;12.67;;
10882;SDS011;5494;51.796;10.952;2023-05-07T02:35:49;20.77;;;13.87;;
10882;SDS011;5494;51.796;10.952;2023-05-07T02:38:18;21.03;;;14.40;;
10882;SDS011;5494;51.796;10.952;2023-05-07T02:40:46;19.80;;;14.13;;
10882;SDS011;5494;51.796;10.952;2023-05-07T02:43:15;22.53;;;13.13;;
10882;SDS011;5494;51.796;10.952;2023-05-07T02:45:47;22.47;;;13.67;;
10882;SDS011;5494;51.796;10.952;2023-05-07T02:48:15;19.80;;;12.90;;
10882;SDS011;5494;51.796;10.952;2023-05-07T02:50:43;22.67;;;14.07;;
10882;SDS011;5494;51.796;10.952;2023-05-07T02:53:13;24.00;;;13.80;;
10882;SDS011;5494;51.796;10.952;2023-05-07T02:55:41;21.27;;;13.63;;
10882;SDS011;5494;51.796;10.952;2023-05-07T02:58:09;22.93;;;14.43;;
10882;SDS011;5494;51.796;10.952;2023-05-07T03:00:39;22.57;;;14.73;;
10882;SDS011;5494;51.796;10.952;2023-05-07T03:03:32;24.73;;;15.37;;
10882;SDS011;5494;51.796;10.952;2023-05-07T03:06:01;27.10;;;16.53;;
10882;SDS011;5494;51.796;10.952;2023-05-07T03:08:29;24.07;;;16.07;;
10882;SDS011;5494;51.796;10.952;2023-05-07T03:10:57;27.00;;;16.10;;
10882;SDS011;5494;51.796;10.952;2023-05-07T03:13:25;24.77;;;15.97;;
10882;SDS011;5494;51.796;10.952;2023-05-07T03:15:53;24.87;;;16.37;;
10882;SDS011;5494;51.796;10.952;2023-05-07T03:18:21;26.10;;;17.23;;
10882;SDS011;5494;51.796;10.952;2023-05-07T03:20:51;26.60;;;16.20;;
10882;SDS011;5494;51.796;10.952;2023-05-07T03:23:19;26.23;;;17.37;;
10882;SDS011;5494;51.796;10.952;2023-05-07T03:25:49;29.50;;;17.87;;
10882;SDS011;5494;51.796;10.952;2023-05-07T03:28:18;29.83;;;17.73;;
10882;SDS011;5494;51.796;10.952;2023-05-07T03:30:51;25.97;;;17.83;;
10882;SDS011;5494;51.796;10.952;2023-05-07T03:33:19;28.53;;;17.40;;
10882;SDS011;5494;51.796;10.952;2023-05-07T03:35:48;25.83;;;15.07;;
10882;SDS011;5494;51.796;10.952;2023-05-07T03:38:21;26.70;;;16.77;;
10882;SDS011;5494;51.796;10.952;2023-05-07T03:40:49;25.80;;;16.37;;
10882;SDS011;5494;51.796;10.952;2023-05-07T03:43:17;26.43;;;18.13;;
10882;SDS011;5494;51.796;10.952;2023-05-07T03:45:50;27.77;;;18.47;;
10882;SDS011;5494;51.796;10.952;2023-05-07T03:48:23;26.63;;;15.53;;
10882;SDS011;5494;51.796;10.952;2023-05-07T03:50:55;25.20;;;16.00;;
10882;SDS011;5494;51.796;10.952;2023-05-07T03:53:30;26.13;;;16.40;;
10882;SDS011;5494;51.796;10.952;2023-05-07T03:55:59;25.93;;;16.23;;
10882;SDS011;5494;51.796;10.952;2023-05-07T03:58:30;24.13;;;16.07;;
10882;SDS011;5494;51.796;10.952;2023-05-07T04:01:02;24.17;;;14.93;;
10882;SDS011;5494;51.796;10.952;2023-05-07T04:03:31;21.90;;;14.60;;
10882;SDS011;5494;51.796;10.952;2023-05-07T04:05:59;20.17;;;13.73;;
10882;SDS011;5494;51.796;10.952;2023-05-07T04:08:30;24.97;;;14.77;;
10882;SDS011;5494;51.796;10.952;2023-05-07T04:10:58;21.50;;;13.50;;
10882;SDS011;5494;51.796;10.952;2023-05-07T04:13:30;23.60;;;14.07;;
10882;SDS011;5494;51.796;10.952;2023-05-07T04:16:00;19.27;;;13.50;;
10882;SDS011;5494;51.796;10.952;2023-05-07T04:18:31;20.73;;;14.13;;
10882;SDS011;5494;51.796;10.952;2023-05-07T04:20:59;19.17;;;13.20;;
10882;SDS011;5494;51.796;10.952;2023-05-07T04:23:27;19.37;;;13.07;;
10882;SDS011;5494;51.796;10.952;2023-05-07T04:25:58;23.37;;;13.47;;
10882;SDS011;5494;51.796;10.952;2023-05-07T04:28:32;18.67;;;12.23;;
10882;SDS011;5494;51.796;10.952;2023-05-07T04:31:01;18.90;;;12.73;;
10882;SDS011;5494;51.796;10.952;2023-05-07T04:33:31;18.33;;;12.43;;
10882;SDS011;5494;51.796;10.952;2023-05-07T04:36:01;19.13;;;11.20;;
10882;SDS011;5494;51.796;10.952;2023-05-07T04:38:34;16.30;;;11.27;;
10882;SDS011;5494;51.796;10.952;2023-05-07T04:41:05;19.50;;;12.67;;
10882;SDS011;5494;51.796;10.952;2023-05-07T04:43:39;16.90;;;12.50;;
10882;SDS011;5494;51.796;10.952;2023-05-07T04:46:09;18.00;;;12.63;;
10882;SDS011;5494;51.796;10.952;2023-05-07T04:48:37;17.60;;;12.00;;
10882;SDS011;5494;51.796;10.952;2023-05-07T04:51:06;20.40;;;13.13;;
10882;SDS011;5494;51.796;10.952;2023-05-07T04:53:34;17.63;;;11.70;;
10882;SDS011;5494;51.796;10.952;2023-05-07T04:56:02;18.97;;;12.77;;
10882;SDS011;5494;51.796;10.952;2023-05-07T04:58:38;18.77;;;11.90;;
10882;SDS011;5494;51.796;10.952;2023-05-07T05:01:07;16.87;;;12.37;;
10882;SDS011;5494;51.796;10.952;2023-05-07T05:03:36;19.50;;;12.73;;
10882;SDS011;5494;51.796;10.952;2023-05-07T05:06:06;16.87;;;11.70;;
10882;SDS011;5494;51.796;10.952;2023-05-07T05:08:35;15.80;;;11.43;;
10882;SDS011;5494;51.796;10.952;2023-05-07T05:11:03;15.63;;;10.83;;
10882;SDS011;5494;51.796;10.952;2023-05-07T05:13:33;15.23;;;10.63;;
10882;SDS011;5494;51.796;10.952;2023-05-07T05:16:10;16.50;;;11.47;;
10882;SDS011;5494;51.796;10.952;2023-05-07T05:18:38;15.43;;;11.40;;
10882;SDS011;5494;51.796;10.952;2023-05-07T05:21:08;17.77;;;11.60;;
10882;SDS011;5494;51.796;10.952;2023-05-07T05:23:37;15.83;;;11.03;;
10882;SDS011;5494;51.796;10.952;2023-05-07T05:26:05;15.10;;;11.03;;
10882;SDS011;5494;51.796;10.952;2023-05-07T05:28:33;14.57;;;10.47;;
10882;SDS011;5494;51.796;10.952;2023-05-07T05:31:02;16.00;;;10.70;;
10882;SDS011;5494;51.796;10.952;2023-05-07T05:33:35;13.37;;;11.27;;
10882;SDS011;5494;51.796;10.952;2023-05-07T05:36:04;14.20;;;10.87;;
10882;SDS011;5494;51.796;10.952;2023-05-07T05:38:35;14.53;;;11.50;;
10882;SDS011;5494;51.796;10.952;2023-05-07T05:41:04;15.93;;;11.63;;
10882;SDS011;5494;51.796;10.952;2023-05-07T05:43:32;16.53;;;12.07;;
10882;SDS011;5494;51.796;10.952;2023-05-07T05:46:00;15.07;;;11.73;;
10882;SDS011;5494;51.796;10.952;2023-05-07T05:48:30;16.00;;;11.57;;
10882;SDS011;5494;51.796;10.952;2023-05-07T05:51:02;15.27;;;12.00;;
10882;SDS011;5494;51.796;10.952;2023-05-07T05:53:30;16.03;;;12.40;;
10882;SDS011;5494;51.796;10.952;2023-05-07T05:55:58;17.07;;;12.50;;
10882;SDS011;5494;51.796;10.952;2023-05-07T05:58:27;18.93;;;13.17;;
10882;SDS011;5494;51.796;10.952;2023-05-07T06:00:59;16.30;;;11.20;;
10882;SDS011;5494;51.796;10.952;2023-05-07T06:03:29;18.73;;;13.50;;
10882;SDS011;5494;51.796;10.952;2023-05-07T06:06:02;16.77;;;12.33;;
10882;SDS011;5494;51.796;10.952;2023-05-07T06:08:31;18.17;;;13.70;;
10882;SDS011;5494;51.796;10.952;2023-05-07T06:10:59;17.60;;;13.53;;
10882;SDS011;5494;51.796;10.952;2023-05-07T06:13:35;19.60;;;13.50;;
10882;SDS011;5494;51.796;10.952;2023-05-07T06:16:03;18.77;;;13.73;;
10882;SDS011;5494;51.796;10.952;2023-05-07T06:18:32;18.33;;;13.47;;
10882;SDS011;5494;51.796;10.952;2023-05-07T06:21:06;20.10;;;14.47;;
10882;SDS011;5494;51.796;10.952;2023-05-07T06:23:34;17.77;;;14.10;;
10882;SDS011;5494;51.796;10.952;2023-05-07T06:26:03;18.87;;;14.57;;
10882;SDS011;5494;51.796;10.952;2023-05-07T06:28:36;18.77;;;14.53;;
10882;SDS011;5494;51.796;10.952;2023-05-07T06:31:12;18.00;;;13.13;;
10882;SDS011;5494;51.796;10.952;2023-05-07T06:33:48;23.43;;;15.03;;
10882;SDS011;5494;51.796;10.952;2023-05-07T06:36:18;18.23;;;13.23;;
10882;SDS011;5494;51.796;10.952;2023-05-07T06:38:47;17.57;;;13.67;;
10882;SDS011;5494;51.796;10.952;2023-05-07T06:41:15;17.53;;;12.80;;
10882;SDS011;5494;51.796;10.952;2023-05-07T06:43:43;20.90;;;13.33;;
10882;SDS011;5494;51.796;10.952;2023-05-07T06:46:24;18.00;;;13.53;;
10882;SDS011;5494;51.796;10.952;2023-05-07T06:48:52;17.97;;;13.60;;
10882;SDS011;5494;51.796;10.952;2023-05-07T06:51:21;15.90;;;12.30;;
10882;SDS011;5494;51.796;10.952;2023-05-07T06:53:50;17.63;;;13.20;;
10882;SDS011;5494;51.796;10.952;2023-05-07T06:56:18;16.67;;;12.60;;
10882;SDS011;5494;51.796;10.952;2023-05-07T06:58:47;16.80;;;12.93;;
10882;SDS011;5494;51.796;10.952;2023-05-07T07:01:16;16.70;;;11.73;;
10882;SDS011;5494;51.796;10.952;2023-05-07T07:03:44;16.37;;;12.40;;
10882;SDS011;5494;51.796;10.952;2023-05-07T07:06:13;16.83;;;12.43;;
10882;SDS011;5494;51.796;10.952;2023-05-07T07:08:43;17.27;;;12.43;;
10882;SDS011;5494;51.796;10.952;2023-05-07T07:11:13;15.03;;;11.70;;
10882;SDS011;5494;51.796;10.952;2023-05-07T07:13:42;16.03;;;13.07;;
10882;SDS011;5494;51.796;10.952;2023-05-07T07:16:10;16.50;;;12.80;;
10882;SDS011;5494;51.796;10.952;2023-05-07T07:18:38;16.33;;;12.47;;
10882;SDS011;5494;51.796;10.952;2023-05-07T07:21:06;16.50;;;12.43;;
10882;SDS011;5494;51.796;10.952;2023-05-07T07:23:34;15.97;;;13.27;;
10882;SDS011;5494;51.796;10.952;2023-05-07T07:26:03;15.37;;;12.77;;
10882;SDS011;5494;51.796;10.952;2023-05-07T07:28:32;17.57;;;13.30;;
10882;SDS011;5494;51.796;10.952;2023-05-07T07:31:01;18.63;;;13.40;;
10882;SDS011;5494;51.796;10.952;2023-05-07T07:33:30;16.63;;;13.40;;
10882;SDS011;5494;51.796;10.952;2023-05-07T07:35:58;18.03;;;14.37;;
10882;SDS011;5494;51.796;10.952;2023-05-07T07:38:26;16.60;;;13.47;;
10882;SDS011;5494;51.796;10.952;2023-05-07T07:40:54;17.10;;;12.73;;
10882;SDS011;5494;51.796;10.952;2023-05-07T07:43:24;18.37;;;13.87;;
10882;SDS011;5494;51.796;10.952;2023-05-07T07:45:52;19.70;;;15.50;;
10882;SDS011;5494;51.796;10.952;2023-05-07T07:48:21;21.33;;;16.00;;
10882;SDS011;5494;51.796;10.952;2023-05-07T07:50:49;20.30;;;15.73;;
10882;SDS011;5494;51.796;10.952;2023-05-07T07:53:18;19.30;;;15.23;;
10882;SDS011;5494;51.796;10.952;2023-05-07T07:55:46;19.57;;;15.97;;
10882;SDS011;5494;51.796;10.952;2023-05-07T07:58:17;19.87;;;15.23;;
10882;SDS011;5494;51.796;10.952;2023-05-07T08:00:47;18.57;;;15.47;;
10882;SDS011;5494;51.796;10.952;2023-05-07T08:03:15;18.37;;;14.43;;
10882;SDS011;5494;51.796;10.952;2023-05-07T08:05:47;18.53;;;13.73;;
10882;SDS011;5494;51.796;10.952;2023-05-07T08:08:17;15.60;;;13.07;;
10882;SDS011;5494;51.796;10.952;2023-05-07T08:10:45;18.13;;;13.33;;
10882;SDS011;5494;51.796;10.952;2023-05-07T08:13:23;16.73;;;12.87;;
10882;SDS011;5494;51.796;10.952;2023-05-07T08:15:53;16.73;;;13.40;;
10882;SDS011;5494;51.796;10.952;2023-05-07T08:18:21;16.47;;;12.93;;
10882;SDS011;5494;51.796;10.952;2023-05-07T08:20:50;14.43;;;11.60;;
10882;SDS011;5494;51.796;10.952;2023-05-07T08:23:21;15.53;;;12.87;;
10882;SDS011;5494;51.796;10.952;2023-05-07T08:25:50;17.37;;;13.10;;
10882;SDS011;5494;51.796;10.952;2023-05-07T08:28:18;17.20;;;14.07;;
10882;SDS011;5494;51.796;10.952;2023-05-07T08:30:47;16.60;;;13.90;;
10882;SDS011;5494;51.796;10.952;2023-05-07T08:33:17;19.00;;;13.53;;
10882;SDS011;5494;51.796;10.952;2023-05-07T08:35:45;16.57;;;13.13;;
10882;SDS011;5494;51.796;10.952;2023-05-07T08:38:14;14.40;;;12.23;;
10882;SDS011;5494;51.796;10.952;2023-05-07T08:40:42;16.27;;;12.57;;
10882;SDS011;5494;51.796;10.952;2023-05-07T08:43:15;14.97;;;12.43;;
10882;SDS011;5494;51.796;10.952;2023-05-07T08:45:46;13.97;;;11.73;;
10882;SDS011;5494;51.796;10.952;2023-05-07T08:48:25;15.10;;;12.57;;
10882;SDS011;5494;51.796;10.952;2023-05-07T08:51:04;14.20;;;12.23;;
10882;SDS011;5494;51.796;10.952;2023-05-07T08:53:33;14.77;;;11.20;;
10882;SDS011;5494;51.796;10.952;2023-05-07T08:56:03;14.20;;;11.50;;
10882;SDS011;5494;51.796;10.952;2023-05-07T08:58:33;12.17;;;10.50;;
10882;SDS011;5494;51.796;10.952;2023-05-07T09:01:02;12.17;;;10.50;;
10882;SDS011;5494;51.796;10.952;2023-05-07T09:03:38;13.80;;;12.03;;
10882;SDS011;5494;51.796;10.952;2023-05-07T09:06:07;16.33;;;11.37;;
10882;SDS011;5494;51.796;10.952;2023-05-07T09:08:35;14.57;;;12.03;;
10882;SDS011;5494;51.796;10.952;2023-05-07T09:11:05;15.30;;;12.27;;
10882;SDS011;5494;51.796;10.952;2023-05-07T09:13:33;14.50;;;12.20;;
10882;SDS011;5494;51.796;10.952;2023-05-07T09:16:11;14.93;;;11.37;;
10882;SDS011;5494;51.796;10.952;2023-05-07T09:18:45;13.70;;;11.63;;
10882;SDS011;5494;51.796;10.952;2023-05-07T09:21:17;14.93;;;11.73;;
10882;SDS011;5494;51.796;10.952;2023-05-07T09:23:48;13.03;;;11.63;;
10882;SDS011;5494;51.796;10.952;2023-05-07T09:26:24;12.87;;;10.50;;
10882;SDS011;5494;51.796;10.952;2023-05-07T09:28:54;12.03;;;10.73;;
10882;SDS011;5494;51.796;10.952;2023-05-07T09:31:22;13.93;;;11.27;;
10882;SDS011;5494;51.796;10.952;2023-05-07T09:33:54;11.80;;;10.60;;
10882;SDS011;5494;51.796;10.952;2023-05-07T09:36:25;11.03;;;9.37;;
10882;SDS011;5494;51.796;10.952;2023-05-07T09:38:58;11.10;;;8.60;;
10882;SDS011;5494;51.796;10.952;2023-05-07T09:41:28;9.33;;;8.30;;
10882;SDS011;5494;51.796;10.952;2023-05-07T09:44:07;9.13;;;8.23;;
10882;SDS011;5494;51.796;10.952;2023-05-07T09:46:42;8.57;;;7.40;;
10882;SDS011;5494;51.796;10.952;2023-05-07T09:49:22;9.97;;;7.43;;
10882;SDS011;5494;51.796;10.952;2023-05-07T09:51:58;8.30;;;7.40;;
10882;SDS011;5494;51.796;10.952;2023-05-07T09:54:33;10.33;;;8.60;;
10882;SDS011;5494;51.796;10.952;2023-05-07T09:57:05;10.40;;;9.03;;
10882;SDS011;5494;51.796;10.952;2023-05-07T09:59:35;11.30;;;9.03;;
10882;SDS011;5494;51.796;10.952;2023-05-07T10:02:09;11.47;;;9.30;;
10882;SDS011;5494;51.796;10.952;2023-05-07T10:04:46;9.47;;;8.57;;
10882;SDS011;5494;51.796;10.952;2023-05-07T10:07:21;10.97;;;9.80;;
10882;SDS011;5494;51.796;10.952;2023-05-07T10:09:53;9.97;;;8.97;;
10882;SDS011;5494;51.796;10.952;2023-05-07T10:12:30;8.53;;;7.63;;
10882;SDS011;5494;51.796;10.952;2023-05-07T10:15:06;9.60;;;8.33;;
10882;SDS011;5494;51.796;10.952;2023-05-07T10:17:39;10.10;;;9.00;;
10882;SDS011;5494;51.796;10.952;2023-05-07T10:20:11;9.67;;;8.13;;
10882;SDS011;5494;51.796;10.952;2023-05-07T10:22:42;10.37;;;9.27;;
10882;SDS011;5494;51.796;10.952;2023-05-07T10:25:16;10.83;;;9.53;;
10882;SDS011;5494;51.796;10.952;2023-05-07T10:27:50;11.43;;;10.23;;
10882;SDS011;5494;51.796;10.952;2023-05-07T10:30:24;11.73;;;10.10;;
10882;SDS011;5494;51.796;10.952;2023-05-07T10:33:08;10.37;;;9.33;;
10882;SDS011;5494;51.796;10.952;2023-05-07T10:35:44;11.80;;;10.57;;
10882;SDS011;5494;51.796;10.952;2023-05-07T10:38:15;11.07;;;9.93;;
10882;SDS011;5494;51.796;10.952;2023-05-07T10:40:45;11.90;;;10.70;;
10882;SDS011;5494;51.796;10.952;2023-05-07T10:43:16;12.50;;;11.23;;
10882;SDS011;5494;51.796;10.952;2023-05-07T10:51:45;12.47;;;10.87;;
10882;SDS011;5494;51.796;10.952;2023-05-07T10:55:18;13.20;;;11.80;;
10882;SDS011;5494;51.796;10.952;2023-05-07T10:58:24;13.10;;;10.73;;
10882;SDS011;5494;51.796;10.952;2023-05-07T11:01:07;12.50;;;11.20;;
10882;SDS011;5494;51.796;10.952;2023-05-07T11:10:06;13.30;;;11.70;;
10882;SDS011;5494;51.796;10.952;2023-05-07T11:12:56;11.20;;;10.10;;
10882;SDS011;5494;51.796;10.952;2023-05-07T11:15:35;13.07;;;11.60;;
10882;SDS011;5494;51.796;10.952;2023-05-07T11:18:16;11.60;;;10.40;;
10882;SDS011;5494;51.796;10.952;2023-05-07T11:20:49;13.40;;;12.00;;
10882;SDS011;5494;51.796;10.952;2023-05-07T11:26:41;11.23;;;10.13;;
10882;SDS011;5494;51.796;10.952;2023-05-07T11:29:15;10.80;;;9.80;;
10882;SDS011;5494;51.796;10.952;2023-05-07T11:31:50;12.23;;;9.63;;
10882;SDS011;5494;51.796;10.952;2023-05-07T11:34:22;11.07;;;10.00;;
10882;SDS011;5494;51.796;10.952;2023-05-07T11:36:54;11.23;;;10.13;;
10882;SDS011;5494;51.796;10.952;2023-05-07T11:39:37;11.20;;;10.10;;
10882;SDS011;5494;51.796;10.952;2023-05-07T11:42:05;11.47;;;10.37;;
10882;SDS011;5494;51.796;10.952;2023-05-07T11:44:41;11.00;;;9.90;;
10882;SDS011;5494;51.796;10.952;2023-05-07T11:47:16;11.40;;;10.27;;
10882;SDS011;5494;51.796;10.952;2023-05-07T11:49:45;12.03;;;10.83;;
10882;SDS011;5494;51.796;10.952;2023-05-07T11:52:15;13.57;;;11.90;;
10882;SDS011;5494;51.796;10.952;2023-05-07T11:54:49;13.23;;;11.93;;
10882;SDS011;5494;51.796;10.952;2023-05-07T11:57:17;13.03;;;11.73;;
10882;SDS011;5494;51.796;10.952;2023-05-07T11:59:46;12.90;;;11.60;;
10882;SDS011;5494;51.796;10.952;2023-05-07T12:02:15;13.40;;;12.00;;
10882;SDS011;5494;51.796;10.952;2023-05-07T12:04:44;13.63;;;11.93;;
10882;SDS011;5494;51.796;10.952;2023-05-07T12:07:12;13.27;;;11.73;;
10882;SDS011;5494;51.796;10.952;2023-05-07T12:09:42;12.87;;;11.57;;
10882;SDS011;5494;51.796;10.952;2023-05-07T12:12:11;13.43;;;12.03;;
10882;SDS011;5494;51.796;10.952;2023-05-07T12:14:42;14.10;;;11.60;;
10882;SDS011;5494;51.796;10.952;2023-05-07T12:17:13;13.37;;;11.40;;
10882;SDS011;5494;51.796;10.952;2023-05-07T12:19:43;14.87;;;12.23;;
10882;SDS011;5494;51.796;10.952;2023-05-07T12:22:13;14.50;;;12.47;;
10882;SDS011;5494;51.796;10.952;2023-05-07T12:24:43;16.00;;;13.57;;
10882;SDS011;5494;51.796;10.952;2023-05-07T12:27:14;15.37;;;12.83;;
10882;SDS011;5494;51.796;10.952;2023-05-07T12:29:43;15.57;;;13.97;;
10882;SDS011;5494;51.796;10.952;2023-05-07T12:32:13;16.57;;;14.00;;
10882;SDS011;5494;51.796;10.952;2023-05-07T12:34:42;15.80;;;13.77;;
10882;SDS011;5494;51.796;10.952;2023-05-07T12:37:11;15.93;;;13.60;;
10882;SDS011;5494;51.796;10.952;2023-05-07T12:39:43;15.80;;;14.00;;
10882;SDS011;5494;51.796;10.952;2023-05-07T12:42:15;16.27;;;13.07;;
10882;SDS011;5494;51.796;10.952;2023-05-07T12:44:49;15.90;;;13.20;;
10882;SDS011;5494;51.796;10.952;2023-05-07T12:47:18;16.47;;;13.70;;
10882;SDS011;5494;51.796;10.952;2023-05-07T12:49:48;16.40;;;13.53;;
10882;SDS011;5494;51.796;10.952;2023-05-07T12:52:15;15.20;;;13.40;;
10882;SDS011;5494;51.796;10.952;2023-05-07T12:54:44;15.07;;;13.57;;
10882;SDS011;5494;51.796;10.952;2023-05-07T12:57:12;16.03;;;13.63;;
10882;SDS011;5494;51.796;10.952;2023-05-07T12:59:41;15.37;;;13.70;;
10882;SDS011;5494;51.796;10.952;2023-05-07T13:02:09;16.43;;;14.73;;
10882;SDS011;5494;51.796;10.952;2023-05-07T13:04:39;16.63;;;14.90;;
10882;SDS011;5494;51.796;10.952;2023-05-07T13:07:08;15.77;;;14.03;;
10882;SDS011;5494;51.796;10.952;2023-05-07T13:09:36;15.47;;;13.87;;
10882;SDS011;5494;51.796;10.952;2023-05-07T13:12:04;15.23;;;12.80;;
10882;SDS011;5494;51.796;10.952;2023-05-07T13:14:33;15.60;;;13.03;;
10882;SDS011;5494;51.796;10.952;2023-05-07T13:17:02;15.73;;;13.23;;
10882;SDS011;5494;51.796;10.952;2023-05-07T13:19:31;14.70;;;13.13;;
10882;SDS011;5494;51.796;10.952;2023-05-07T13:21:58;14.13;;;12.63;;
10882;SDS011;5494;51.796;10.952;2023-05-07T13:24:27;14.67;;;13.07;;
10882;SDS011;5494;51.796;10.952;2023-05-07T13:26:55;15.23;;;12.93;;
10882;SDS011;5494;51.796;10.952;2023-05-07T13:29:23;18.07;;;14.57;;
10882;SDS011;5494;51.796;10.952;2023-05-07T13:31:56;15.43;;;13.60;;
10882;SDS011;5494;51.796;10.952;2023-05-07T13:34:26;14.73;;;12.73;;
10882;SDS011;5494;51.796;10.952;2023-05-07T13:36:55;15.50;;;13.53;;
10882;SDS011;5494;51.796;10.952;2023-05-07T13:39:23;17.00;;;13.90;;
10882;SDS011;5494;51.796;10.952;2023-05-07T13:41:51;16.07;;;13.63;;
10882;SDS011;5494;51.796;10.952;2023-05-07T13:44:19;16.00;;;14.30;;
10882;SDS011;5494;51.796;10.952;2023-05-07T13:46:47;17.67;;;14.93;;
10882;SDS011;5494;51.796;10.952;2023-05-07T13:49:15;18.67;;;15.13;;
10882;SDS011;5494;51.796;10.952;2023-05-07T13:51:44;17.60;;;15.07;;
10882;SDS011;5494;51.796;10.952;2023-05-07T13:54:12;16.67;;;14.87;;
10882;SDS011;5494;51.796;10.952;2023-05-07T13:56:40;16.63;;;14.83;;
10882;SDS011;5494;51.796;10.952;2023-05-07T13:59:08;16.77;;;14.20;;
10882;SDS011;5494;51.796;10.952;2023-05-07T14:01:35;16.23;;;14.13;;
10882;SDS011;5494;51.796;10.952;2023-05-07T14:04:04;15.73;;;14.03;;
10882;SDS011;5494;51.796;10.952;2023-05-07T14:06:32;18.60;;;14.43;;
10882;SDS011;5494;51.796;10.952;2023-05-07T14:09:01;17.83;;;14.47;;
10882;SDS011;5494;51.796;10.952;2023-05-07T14:11:30;15.07;;;13.47;;
10882;SDS011;5494;51.796;10.952;2023-05-07T14:14:00;16.30;;;14.10;;
10882;SDS011;5494;51.796;10.952;2023-05-07T14:16:28;15.17;;;13.57;;
10882;SDS011;5494;51.796;10.952;2023-05-07T14:18:56;15.07;;;13.47;;
10882;SDS011;5494;51.796;10.952;2023-05-07T14:21:24;15.27;;;13.67;;
10882;SDS011;5494;51.796;10.952;2023-05-07T14:23:52;15.03;;;12.70;;
10882;SDS011;5494;51.796;10.952;2023-05-07T14:26:23;14.77;;;13.20;;
10882;SDS011;5494;51.796;10.952;2023-05-07T14:28:53;14.43;;;12.73;;
10882;SDS011;5494;51.796;10.952;2023-05-07T14:31:23;13.43;;;12.03;;
10882;SDS011;5494;51.796;10.952;2023-05-07T14:33:51;14.70;;;12.93;;
10882;SDS011;5494;51.796;10.952;2023-05-07T14:36:19;14.47;;;12.17;;
10882;SDS011;5494;51.796;10.952;2023-05-07T14:38:49;13.47;;;11.67;;
10882;SDS011;5494;51.796;10.952;2023-05-07T14:41:16;13.63;;;11.53;;
10882;SDS011;5494;51.796;10.952;2023-05-07T14:43:46;12.33;;;11.03;;
10882;SDS011;5494;51.796;10.952;2023-05-07T14:46:16;11.77;;;10.60;;
10882;SDS011;5494;51.796;10.952;2023-05-07T14:48:45;11.77;;;9.87;;
10882;SDS011;5494;51.796;10.952;2023-05-07T14:51:13;11.50;;;10.30;;
10882;SDS011;5494;51.796;10.952;2023-05-07T14:53:41;10.77;;;9.67;;
10882;SDS011;5494;51.796;10.952;2023-05-07T14:56:09;9.93;;;8.93;;
10882;SDS011;5494;51.796;10.952;2023-05-07T14:58:37;9.27;;;8.37;;